Aviation Digital Data Service (ADDS)

Output produced by METARs form (2342 UTC 25 June 2019)
found at http://aviationweather.gov/metar/data/
 
KJAN 252221Z 2522/2618 26025G40KT 3SM TSRA BKN035CB OVC050 
     FM252245 21007KT P6SM RA SCT030 OVC050 
     FM260100 19003KT P6SM OVC120 
     FM260300 18002KT P6SM SCT020 BKN250